sensor_id;sensor_type;location;lat;lon;timestamp;P1;durP1;ratioP1;P2;durP2;ratioP2
28427;SDS011;15662;49.128;8.520;2023-02-28T00:01:33;2.38;;;2.17;;
28427;SDS011;15662;49.128;8.520;2023-02-28T00:04:01;3.10;;;2.30;;
28427;SDS011;15662;49.128;8.520;2023-02-28T00:06:30;3.10;;;2.17;;
28427;SDS011;15662;49.128;8.520;2023-02-28T00:08:59;2.60;;;2.40;;
28427;SDS011;15662;49.128;8.520;2023-02-28T00:11:28;2.97;;;2.65;;
28427;SDS011;15662;49.128;8.520;2023-02-28T00:13:57;2.67;;;2.42;;
28427;SDS011;15662;49.128;8.520;2023-02-28T00:16:26;3.38;;;2.42;;
28427;SDS011;15662;49.128;8.520;2023-02-28T00:18:55;2.60;;;2.22;;
28427;SDS011;15662;49.128;8.520;2023-02-28T00:21:24;2.22;;;2.13;;
28427;SDS011;15662;49.128;8.520;2023-02-28T00:23:54;3.70;;;2.50;;
28427;SDS011;15662;49.128;8.520;2023-02-28T00:26:22;3.25;;;2.40;;
28427;SDS011;15662;49.128;8.520;2023-02-28T00:28:51;2.90;;;2.08;;
28427;SDS011;15662;49.128;8.520;2023-02-28T00:31:21;2.80;;;2.30;;
28427;SDS011;15662;49.128;8.520;2023-02-28T00:33:49;3.15;;;2.53;;
28427;SDS011;15662;49.128;8.520;2023-02-28T00:36:20;2.85;;;2.25;;
28427;SDS011;15662;49.128;8.520;2023-02-28T00:38:49;3.15;;;2.50;;
28427;SDS011;15662;49.128;8.520;2023-02-28T00:41:17;3.50;;;2.47;;
28427;SDS011;15662;49.128;8.520;2023-02-28T00:43:47;3.55;;;2.42;;
28427;SDS011;15662;49.128;8.520;2023-02-28T00:48:46;2.55;;;2.30;;
28427;SDS011;15662;49.128;8.520;2023-02-28T00:51:14;3.30;;;2.55;;
28427;SDS011;15662;49.128;8.520;2023-02-28T00:53:42;5.25;;;2.47;;
28427;SDS011;15662;49.128;8.520;2023-02-28T00:56:11;2.67;;;2.47;;
28427;SDS011;15662;49.128;8.520;2023-02-28T00:58:40;2.50;;;2.30;;
28427;SDS011;15662;49.128;8.520;2023-02-28T01:01:09;2.13;;;1.98;;
28427;SDS011;15662;49.128;8.520;2023-02-28T01:03:38;2.63;;;2.40;;
28427;SDS011;15662;49.128;8.520;2023-02-28T01:06:06;2.85;;;2.42;;
28427;SDS011;15662;49.128;8.520;2023-02-28T01:08:34;2.65;;;2.45;;
28427;SDS011;15662;49.128;8.520;2023-02-28T01:11:09;2.55;;;2.30;;
28427;SDS011;15662;49.128;8.520;2023-02-28T01:13:40;2.70;;;2.33;;
28427;SDS011;15662;49.128;8.520;2023-02-28T01:16:12;2.50;;;2.30;;
28427;SDS011;15662;49.128;8.520;2023-02-28T01:18:41;5.65;;;2.30;;
28427;SDS011;15662;49.128;8.520;2023-02-28T01:21:12;3.38;;;2.60;;
28427;SDS011;15662;49.128;8.520;2023-02-28T01:23:44;2.60;;;2.40;;
28427;SDS011;15662;49.128;8.520;2023-02-28T01:26:15;2.53;;;2.28;;
28427;SDS011;15662;49.128;8.520;2023-02-28T01:28:50;2.65;;;2.45;;
28427;SDS011;15662;49.128;8.520;2023-02-28T01:31:20;2.90;;;2.47;;
28427;SDS011;15662;49.128;8.520;2023-02-28T01:33:49;2.58;;;2.38;;
28427;SDS011;15662;49.128;8.520;2023-02-28T01:36:20;4.75;;;2.60;;
28427;SDS011;15662;49.128;8.520;2023-02-28T01:38:51;2.90;;;2.70;;
28427;SDS011;15662;49.128;8.520;2023-02-28T01:41:22;3.08;;;2.60;;
28427;SDS011;15662;49.128;8.520;2023-02-28T01:46:34;3.35;;;2.70;;
28427;SDS011;15662;49.128;8.520;2023-02-28T01:51:45;2.03;;;1.88;;
28427;SDS011;15662;49.128;8.520;2023-02-28T01:54:31;2.63;;;2.42;;
28427;SDS011;15662;49.128;8.520;2023-02-28T01:57:10;3.95;;;2.60;;
28427;SDS011;15662;49.128;8.520;2023-02-28T02:00:03;2.78;;;2.55;;
28427;SDS011;15662;49.128;8.520;2023-02-28T02:02:38;3.20;;;2.78;;
28427;SDS011;15662;49.128;8.520;2023-02-28T02:05:21;2.85;;;2.50;;
28427;SDS011;15662;49.128;8.520;2023-02-28T02:08:03;3.38;;;2.85;;
28427;SDS011;15662;49.128;8.520;2023-02-28T02:10:43;2.90;;;2.17;;
28427;SDS011;15662;49.128;8.520;2023-02-28T02:16:26;3.95;;;2.55;;
28427;SDS011;15662;49.128;8.520;2023-02-28T02:25:22;3.10;;;2.50;;
28427;SDS011;15662;49.128;8.520;2023-02-28T02:28:29;3.15;;;2.83;;
28427;SDS011;15662;49.128;8.520;2023-02-28T02:31:25;4.43;;;2.90;;
28427;SDS011;15662;49.128;8.520;2023-02-28T02:42:21;3.35;;;2.88;;
28427;SDS011;15662;49.128;8.520;2023-02-28T02:45:03;3.55;;;3.15;;
28427;SDS011;15662;49.128;8.520;2023-02-28T02:47:49;3.13;;;2.83;;
28427;SDS011;15662;49.128;8.520;2023-02-28T02:50:21;3.20;;;2.90;;
28427;SDS011;15662;49.128;8.520;2023-02-28T02:52:58;4.68;;;3.05;;
28427;SDS011;15662;49.128;8.520;2023-02-28T02:55:32;3.15;;;2.85;;
28427;SDS011;15662;49.128;8.520;2023-02-28T02:58:08;3.92;;;3.00;;
28427;SDS011;15662;49.128;8.520;2023-02-28T03:00:47;3.50;;;3.20;;
28427;SDS011;15662;49.128;8.520;2023-02-28T03:03:32;3.60;;;3.20;;
28427;SDS011;15662;49.128;8.520;2023-02-28T03:06:02;3.30;;;3.00;;
28427;SDS011;15662;49.128;8.520;2023-02-28T03:08:34;3.67;;;3.05;;
28427;SDS011;15662;49.128;8.520;2023-02-28T03:11:06;3.15;;;2.85;;
28427;SDS011;15662;49.128;8.520;2023-02-28T03:25:17;4.90;;;3.40;;
28427;SDS011;15662;49.128;8.520;2023-02-28T03:30:57;4.13;;;3.40;;
28427;SDS011;15662;49.128;8.520;2023-02-28T03:33:38;3.90;;;3.50;;
28427;SDS011;15662;49.128;8.520;2023-02-28T03:37:29;3.85;;;3.30;;
28427;SDS011;15662;49.128;8.520;2023-02-28T03:39:47;4.20;;;3.53;;
28427;SDS011;15662;49.128;8.520;2023-02-28T03:42:29;4.68;;;3.38;;
28427;SDS011;15662;49.128;8.520;2023-02-28T03:45:04;4.32;;;3.20;;
28427;SDS011;15662;49.128;8.520;2023-02-28T03:50:35;3.65;;;3.25;;
28427;SDS011;15662;49.128;8.520;2023-02-28T03:55:52;4.07;;;3.60;;
28427;SDS011;15662;49.128;8.520;2023-02-28T04:01:38;3.47;;;3.17;;
28427;SDS011;15662;49.128;8.520;2023-02-28T04:04:12;4.78;;;3.50;;
28427;SDS011;15662;49.128;8.520;2023-02-28T04:06:42;2.63;;;2.43;;
28427;SDS011;15662;49.128;8.520;2023-02-28T04:09:13;5.25;;;3.60;;
28427;SDS011;15662;49.128;8.520;2023-02-28T04:11:43;5.15;;;3.10;;
28427;SDS011;15662;49.128;8.520;2023-02-28T04:14:16;4.13;;;3.50;;
28427;SDS011;15662;49.128;8.520;2023-02-28T04:16:46;6.00;;;3.88;;
28427;SDS011;15662;49.128;8.520;2023-02-28T04:19:14;5.10;;;3.78;;
28427;SDS011;15662;49.128;8.520;2023-02-28T04:21:48;4.75;;;3.40;;
28427;SDS011;15662;49.128;8.520;2023-02-28T04:24:20;6.13;;;3.70;;
28427;SDS011;15662;49.128;8.520;2023-02-28T04:26:52;6.65;;;3.53;;
28427;SDS011;15662;49.128;8.520;2023-02-28T04:29:24;5.07;;;3.85;;
28427;SDS011;15662;49.128;8.520;2023-02-28T04:31:59;4.03;;;3.60;;
28427;SDS011;15662;49.128;8.520;2023-02-28T04:34:30;3.70;;;2.63;;
28427;SDS011;15662;49.128;8.520;2023-02-28T04:36:59;3.97;;;3.55;;
28427;SDS011;15662;49.128;8.520;2023-02-28T04:39:39;4.75;;;3.97;;
28427;SDS011;15662;49.128;8.520;2023-02-28T04:42:09;5.22;;;3.72;;
28427;SDS011;15662;49.128;8.520;2023-02-28T04:44:39;4.65;;;3.92;;
28427;SDS011;15662;49.128;8.520;2023-02-28T04:47:08;4.80;;;3.80;;
28427;SDS011;15662;49.128;8.520;2023-02-28T04:49:36;4.70;;;4.03;;
28427;SDS011;15662;49.128;8.520;2023-02-28T04:52:05;5.38;;;4.15;;
28427;SDS011;15662;49.128;8.520;2023-02-28T04:54:34;5.15;;;3.95;;
28427;SDS011;15662;49.128;8.520;2023-02-28T04:57:03;6.00;;;4.38;;
28427;SDS011;15662;49.128;8.520;2023-02-28T04:59:31;5.13;;;4.22;;
28427;SDS011;15662;49.128;8.520;2023-02-28T05:02:00;6.00;;;4.47;;
28427;SDS011;15662;49.128;8.520;2023-02-28T05:04:34;6.05;;;4.60;;
28427;SDS011;15662;49.128;8.520;2023-02-28T05:07:04;4.97;;;4.25;;
28427;SDS011;15662;49.128;8.520;2023-02-28T05:09:32;5.68;;;4.60;;
28427;SDS011;15662;49.128;8.520;2023-02-28T05:12:01;5.30;;;4.18;;
28427;SDS011;15662;49.128;8.520;2023-02-28T05:14:30;6.78;;;4.85;;
28427;SDS011;15662;49.128;8.520;2023-02-28T05:17:02;6.70;;;4.75;;
28427;SDS011;15662;49.128;8.520;2023-02-28T05:19:30;10.48;;;6.50;;
28427;SDS011;15662;49.128;8.520;2023-02-28T05:21:59;10.30;;;6.43;;
28427;SDS011;15662;49.128;8.520;2023-02-28T05:24:27;10.02;;;5.50;;
28427;SDS011;15662;49.128;8.520;2023-02-28T05:26:56;8.75;;;5.60;;
28427;SDS011;15662;49.128;8.520;2023-02-28T05:29:25;9.93;;;5.43;;
28427;SDS011;15662;49.128;8.520;2023-02-28T05:31:54;10.73;;;6.10;;
28427;SDS011;15662;49.128;8.520;2023-02-28T05:34:22;7.82;;;5.72;;
28427;SDS011;15662;49.128;8.520;2023-02-28T05:36:51;9.32;;;5.60;;
28427;SDS011;15662;49.128;8.520;2023-02-28T05:39:20;8.77;;;5.40;;
28427;SDS011;15662;49.128;8.520;2023-02-28T05:41:50;7.20;;;5.05;;
28427;SDS011;15662;49.128;8.520;2023-02-28T05:44:19;18.77;;;8.00;;
28427;SDS011;15662;49.128;8.520;2023-02-28T05:46:47;9.43;;;5.75;;
28427;SDS011;15662;49.128;8.520;2023-02-28T05:49:16;9.77;;;6.18;;
28427;SDS011;15662;49.128;8.520;2023-02-28T05:51:45;54.83;;;15.27;;
28427;SDS011;15662;49.128;8.520;2023-02-28T05:54:13;51.47;;;15.45;;
28427;SDS011;15662;49.128;8.520;2023-02-28T05:56:42;14.00;;;7.13;;
28427;SDS011;15662;49.128;8.520;2023-02-28T05:59:15;10.65;;;5.90;;
28427;SDS011;15662;49.128;8.520;2023-02-28T06:01:44;9.00;;;5.60;;
28427;SDS011;15662;49.128;8.520;2023-02-28T06:04:16;8.23;;;5.18;;
28427;SDS011;15662;49.128;8.520;2023-02-28T06:06:57;6.60;;;4.65;;
28427;SDS011;15662;49.128;8.520;2023-02-28T06:09:27;7.53;;;5.40;;
28427;SDS011;15662;49.128;8.520;2023-02-28T06:11:59;6.75;;;5.22;;
28427;SDS011;15662;49.128;8.520;2023-02-28T06:14:31;6.35;;;4.70;;
28427;SDS011;15662;49.128;8.520;2023-02-28T06:17:05;6.10;;;4.60;;
28427;SDS011;15662;49.128;8.520;2023-02-28T06:19:34;6.20;;;4.95;;
28427;SDS011;15662;49.128;8.520;2023-02-28T06:22:07;6.68;;;4.93;;
28427;SDS011;15662;49.128;8.520;2023-02-28T06:24:36;5.70;;;4.47;;
28427;SDS011;15662;49.128;8.520;2023-02-28T06:27:04;5.55;;;4.80;;
28427;SDS011;15662;49.128;8.520;2023-02-28T06:29:36;5.30;;;4.57;;
28427;SDS011;15662;49.128;8.520;2023-02-28T06:32:07;6.60;;;5.25;;
28427;SDS011;15662;49.128;8.520;2023-02-28T06:34:36;6.10;;;4.85;;
28427;SDS011;15662;49.128;8.520;2023-02-28T06:37:04;5.93;;;4.53;;
28427;SDS011;15662;49.128;8.520;2023-02-28T06:39:33;7.03;;;4.82;;
28427;SDS011;15662;49.128;8.520;2023-02-28T06:42:03;6.15;;;4.75;;
28427;SDS011;15662;49.128;8.520;2023-02-28T06:44:33;7.95;;;5.28;;
28427;SDS011;15662;49.128;8.520;2023-02-28T06:47:07;5.22;;;4.57;;
28427;SDS011;15662;49.128;8.520;2023-02-28T06:52:07;5.30;;;4.38;;
28427;SDS011;15662;49.128;8.520;2023-02-28T06:54:39;7.05;;;5.07;;
28427;SDS011;15662;49.128;8.520;2023-02-28T06:57:09;7.95;;;4.80;;
28427;SDS011;15662;49.128;8.520;2023-02-28T06:59:39;6.45;;;4.93;;
28427;SDS011;15662;49.128;8.520;2023-02-28T07:02:10;6.78;;;4.80;;
28427;SDS011;15662;49.128;8.520;2023-02-28T07:04:41;4.50;;;3.70;;
28427;SDS011;15662;49.128;8.520;2023-02-28T07:07:13;6.03;;;5.10;;
28427;SDS011;15662;49.128;8.520;2023-02-28T07:09:42;7.10;;;5.10;;
28427;SDS011;15662;49.128;8.520;2023-02-28T07:12:13;5.85;;;5.07;;
28427;SDS011;15662;49.128;8.520;2023-02-28T07:14:42;6.95;;;4.47;;
28427;SDS011;15662;49.128;8.520;2023-02-28T07:17:10;7.63;;;5.63;;
28427;SDS011;15662;49.128;8.520;2023-02-28T07:19:39;6.53;;;5.15;;
28427;SDS011;15662;49.128;8.520;2023-02-28T07:22:07;8.13;;;5.47;;
28427;SDS011;15662;49.128;8.520;2023-02-28T07:24:36;8.18;;;5.40;;
28427;SDS011;15662;49.128;8.520;2023-02-28T07:27:08;11.30;;;5.60;;
28427;SDS011;15662;49.128;8.520;2023-02-28T07:29:36;7.55;;;5.22;;
28427;SDS011;15662;49.128;8.520;2023-02-28T07:32:05;9.75;;;5.32;;
28427;SDS011;15662;49.128;8.520;2023-02-28T07:34:34;7.93;;;5.22;;
28427;SDS011;15662;49.128;8.520;2023-02-28T07:37:02;8.38;;;5.10;;
28427;SDS011;15662;49.128;8.520;2023-02-28T07:39:32;7.43;;;4.82;;
28427;SDS011;15662;49.128;8.520;2023-02-28T07:42:06;5.17;;;3.67;;
28427;SDS011;15662;49.128;8.520;2023-02-28T07:44:39;9.25;;;5.10;;
28427;SDS011;15662;49.128;8.520;2023-02-28T07:47:09;6.65;;;4.85;;
28427;SDS011;15662;49.128;8.520;2023-02-28T07:49:39;7.00;;;5.53;;
28427;SDS011;15662;49.128;8.520;2023-02-28T07:52:08;7.43;;;5.18;;
28427;SDS011;15662;49.128;8.520;2023-02-28T07:54:38;6.90;;;5.13;;
28427;SDS011;15662;49.128;8.520;2023-02-28T07:57:07;6.00;;;4.97;;
28427;SDS011;15662;49.128;8.520;2023-02-28T07:59:35;7.10;;;5.45;;
28427;SDS011;15662;49.128;8.520;2023-02-28T08:02:06;7.05;;;5.47;;
28427;SDS011;15662;49.128;8.520;2023-02-28T08:04:41;7.50;;;4.85;;
28427;SDS011;15662;49.128;8.520;2023-02-28T08:07:12;8.63;;;5.85;;
28427;SDS011;15662;49.128;8.520;2023-02-28T08:09:41;5.45;;;3.70;;
28427;SDS011;15662;49.128;8.520;2023-02-28T08:12:12;9.73;;;5.57;;
28427;SDS011;15662;49.128;8.520;2023-02-28T08:14:41;6.05;;;5.22;;
28427;SDS011;15662;49.128;8.520;2023-02-28T08:17:12;6.90;;;5.82;;
28427;SDS011;15662;49.128;8.520;2023-02-28T08:19:42;9.32;;;6.35;;
28427;SDS011;15662;49.128;8.520;2023-02-28T08:22:13;9.35;;;5.78;;
28427;SDS011;15662;49.128;8.520;2023-02-28T08:24:42;8.07;;;6.05;;
28427;SDS011;15662;49.128;8.520;2023-02-28T08:27:12;8.23;;;5.85;;
28427;SDS011;15662;49.128;8.520;2023-02-28T08:29:40;7.28;;;5.60;;
28427;SDS011;15662;49.128;8.520;2023-02-28T08:34:57;9.57;;;5.57;;
28427;SDS011;15662;49.128;8.520;2023-02-28T08:37:26;6.25;;;5.38;;
28427;SDS011;15662;49.128;8.520;2023-02-28T08:39:54;6.85;;;5.50;;
28427;SDS011;15662;49.128;8.520;2023-02-28T08:42:23;10.15;;;5.88;;
28427;SDS011;15662;49.128;8.520;2023-02-28T08:44:54;9.07;;;6.15;;
28427;SDS011;15662;49.128;8.520;2023-02-28T08:47:22;7.78;;;5.88;;
28427;SDS011;15662;49.128;8.520;2023-02-28T08:49:53;7.00;;;5.68;;
28427;SDS011;15662;49.128;8.520;2023-02-28T08:52:22;9.90;;;6.38;;
28427;SDS011;15662;49.128;8.520;2023-02-28T08:54:51;8.82;;;5.93;;
28427;SDS011;15662;49.128;8.520;2023-02-28T08:57:21;7.90;;;5.80;;
28427;SDS011;15662;49.128;8.520;2023-02-28T09:00:10;7.28;;;5.72;;
28427;SDS011;15662;49.128;8.520;2023-02-28T09:02:43;9.07;;;6.22;;
28427;SDS011;15662;49.128;8.520;2023-02-28T09:05:32;8.00;;;5.88;;
28427;SDS011;15662;49.128;8.520;2023-02-28T09:08:02;11.13;;;6.63;;
28427;SDS011;15662;49.128;8.520;2023-02-28T09:10:31;8.25;;;6.00;;
28427;SDS011;15662;49.128;8.520;2023-02-28T09:13:01;8.32;;;6.72;;
28427;SDS011;15662;49.128;8.520;2023-02-28T09:15:29;9.55;;;6.53;;
28427;SDS011;15662;49.128;8.520;2023-02-28T09:17:59;11.43;;;7.18;;
28427;SDS011;15662;49.128;8.520;2023-02-28T09:20:27;8.43;;;6.57;;
28427;SDS011;15662;49.128;8.520;2023-02-28T09:22:56;8.48;;;6.15;;
28427;SDS011;15662;49.128;8.520;2023-02-28T09:25:24;7.03;;;5.65;;
28427;SDS011;15662;49.128;8.520;2023-02-28T09:27:53;8.27;;;6.22;;
28427;SDS011;15662;49.128;8.520;2023-02-28T09:30:22;10.32;;;6.57;;
28427;SDS011;15662;49.128;8.520;2023-02-28T09:32:51;11.70;;;7.22;;
28427;SDS011;15662;49.128;8.520;2023-02-28T09:35:22;13.73;;;8.30;;
28427;SDS011;15662;49.128;8.520;2023-02-28T09:37:55;13.13;;;8.05;;
28427;SDS011;15662;49.128;8.520;2023-02-28T09:40:29;8.50;;;6.90;;
28427;SDS011;15662;49.128;8.520;2023-02-28T09:43:02;8.73;;;6.22;;
28427;SDS011;15662;49.128;8.520;2023-02-28T09:45:38;8.35;;;6.30;;
28427;SDS011;15662;49.128;8.520;2023-02-28T09:48:10;7.43;;;6.22;;
28427;SDS011;15662;49.128;8.520;2023-02-28T09:50:46;8.40;;;6.47;;
28427;SDS011;15662;49.128;8.520;2023-02-28T09:53:29;9.45;;;6.80;;
28427;SDS011;15662;49.128;8.520;2023-02-28T09:56:36;8.02;;;5.93;;
28427;SDS011;15662;49.128;8.520;2023-02-28T09:59:23;9.63;;;6.50;;
28427;SDS011;15662;49.128;8.520;2023-02-28T10:05:18;6.90;;;5.70;;
28427;SDS011;15662;49.128;8.520;2023-02-28T10:08:00;7.22;;;6.00;;
28427;SDS011;15662;49.128;8.520;2023-02-28T10:11:32;10.35;;;6.20;;
28427;SDS011;15662;49.128;8.520;2023-02-28T10:14:31;8.80;;;6.35;;
28427;SDS011;15662;49.128;8.520;2023-02-28T10:17:28;7.50;;;6.10;;
28427;SDS011;15662;49.128;8.520;2023-02-28T10:20:22;8.00;;;6.20;;
28427;SDS011;15662;49.128;8.520;2023-02-28T10:23:11;8.68;;;6.03;;
28427;SDS011;15662;49.128;8.520;2023-02-28T10:26:00;8.57;;;6.82;;
28427;SDS011;15662;49.128;8.520;2023-02-28T10:28:39;8.45;;;6.95;;
28427;SDS011;15662;49.128;8.520;2023-02-28T10:31:19;9.23;;;6.95;;
28427;SDS011;15662;49.128;8.520;2023-02-28T10:33:53;9.15;;;6.97;;
28427;SDS011;15662;49.128;8.520;2023-02-28T10:36:23;11.57;;;8.13;;
28427;SDS011;15662;49.128;8.520;2023-02-28T10:38:59;9.77;;;7.03;;
28427;SDS011;15662;49.128;8.520;2023-02-28T10:41:56;7.40;;;6.35;;
28427;SDS011;15662;49.128;8.520;2023-02-28T10:44:34;7.88;;;6.38;;
28427;SDS011;15662;49.128;8.520;2023-02-28T10:47:05;8.70;;;6.68;;
28427;SDS011;15662;49.128;8.520;2023-02-28T10:49:47;9.82;;;6.78;;
28427;SDS011;15662;49.128;8.520;2023-02-28T10:52:51;9.73;;;7.00;;
28427;SDS011;15662;49.128;8.520;2023-02-28T10:55:25;8.57;;;7.32;;
28427;SDS011;15662;49.128;8.520;2023-02-28T10:58:22;9.88;;;6.72;;
28427;SDS011;15662;49.128;8.520;2023-02-28T11:01:19;8.48;;;6.68;;
28427;SDS011;15662;49.128;8.520;2023-02-28T11:03:51;11.35;;;7.45;;
28427;SDS011;15662;49.128;8.520;2023-02-28T11:07:34;9.18;;;7.47;;
28427;SDS011;15662;49.128;8.520;2023-02-28T11:12:48;10.23;;;7.18;;
28427;SDS011;15662;49.128;8.520;2023-02-28T11:15:45;9.95;;;7.13;;
28427;SDS011;15662;49.128;8.520;2023-02-28T11:18:54;11.52;;;7.38;;
28427;SDS011;15662;49.128;8.520;2023-02-28T11:21:33;9.43;;;7.30;;
28427;SDS011;15662;49.128;8.520;2023-02-28T11:27:24;8.40;;;7.15;;
28427;SDS011;15662;49.128;8.520;2023-02-28T11:29:57;19.17;;;8.88;;
28427;SDS011;15662;49.128;8.520;2023-02-28T11:32:27;13.73;;;8.57;;
28427;SDS011;15662;49.128;8.520;2023-02-28T11:35:00;11.35;;;8.40;;
28427;SDS011;15662;49.128;8.520;2023-02-28T11:37:49;21.73;;;12.27;;
28427;SDS011;15662;49.128;8.520;2023-02-28T11:40:38;10.65;;;8.10;;
28427;SDS011;15662;49.128;8.520;2023-02-28T11:43:34;10.18;;;7.13;;
28427;SDS011;15662;49.128;8.520;2023-02-28T11:46:50;9.27;;;7.22;;
28427;SDS011;15662;49.128;8.520;2023-02-28T11:55:20;8.80;;;7.07;;
28427;SDS011;15662;49.128;8.520;2023-02-28T11:58:13;9.27;;;7.03;;
28427;SDS011;15662;49.128;8.520;2023-02-28T12:01:00;7.47;;;6.65;;
28427;SDS011;15662;49.128;8.520;2023-02-28T12:03:43;10.10;;;8.00;;
28427;SDS011;15662;49.128;8.520;2023-02-28T12:10:02;10.27;;;6.97;;
28427;SDS011;15662;49.128;8.520;2023-02-28T12:13:08;8.57;;;7.00;;
28427;SDS011;15662;49.128;8.520;2023-02-28T12:15:58;8.55;;;7.40;;
28427;SDS011;15662;49.128;8.520;2023-02-28T12:19:11;8.02;;;7.13;;
28427;SDS011;15662;49.128;8.520;2023-02-28T12:24:52;7.65;;;6.85;;
28427;SDS011;15662;49.128;8.520;2023-02-28T12:27:41;8.20;;;6.45;;
28427;SDS011;15662;49.128;8.520;2023-02-28T12:30:17;8.43;;;6.97;;
28427;SDS011;15662;49.128;8.520;2023-02-28T12:33:09;8.68;;;7.30;;
28427;SDS011;15662;49.128;8.520;2023-02-28T12:35:52;9.65;;;7.35;;
28427;SDS011;15662;49.128;8.520;2023-02-28T12:38:29;8.45;;;6.70;;
28427;SDS011;15662;49.128;8.520;2023-02-28T12:41:33;9.70;;;7.85;;
28427;SDS011;15662;49.128;8.520;2023-02-28T12:44:35;10.05;;;6.75;;
28427;SDS011;15662;49.128;8.520;2023-02-28T12:47:09;9.52;;;7.07;;
28427;SDS011;15662;49.128;8.520;2023-02-28T12:59:17;11.35;;;8.18;;
28427;SDS011;15662;49.128;8.520;2023-02-28T13:04:57;13.95;;;8.27;;
28427;SDS011;15662;49.128;8.520;2023-02-28T13:07:58;9.45;;;7.63;;
28427;SDS011;15662;49.128;8.520;2023-02-28T13:11:06;9.13;;;7.35;;
28427;SDS011;15662;49.128;8.520;2023-02-28T13:13:49;9.20;;;7.55;;
28427;SDS011;15662;49.128;8.520;2023-02-28T13:19:42;7.72;;;7.00;;
28427;SDS011;15662;49.128;8.520;2023-02-28T13:22:44;7.95;;;7.15;;
28427;SDS011;15662;49.128;8.520;2023-02-28T13:28:10;10.60;;;7.57;;
28427;SDS011;15662;49.128;8.520;2023-02-28T13:38:42;8.23;;;7.22;;
28427;SDS011;15662;49.128;8.520;2023-02-28T13:41:41;8.30;;;7.18;;
28427;SDS011;15662;49.128;8.520;2023-02-28T13:57:52;10.57;;;7.57;;
28427;SDS011;15662;49.128;8.520;2023-02-28T14:06:28;9.50;;;8.05;;
28427;SDS011;15662;49.128;8.520;2023-02-28T14:09:15;8.95;;;8.02;;
28427;SDS011;15662;49.128;8.520;2023-02-28T14:21:14;9.45;;;8.10;;
28427;SDS011;15662;49.128;8.520;2023-02-28T14:27:11;9.07;;;8.13;;
28427;SDS011;15662;49.128;8.520;2023-02-28T14:30:32;10.07;;;8.02;;
28427;SDS011;15662;49.128;8.520;2023-02-28T14:33:35;8.20;;;7.38;;
28427;SDS011;15662;49.128;8.520;2023-02-28T14:39:13;8.40;;;7.18;;
28427;SDS011;15662;49.128;8.520;2023-02-28T14:41:51;10.20;;;8.40;;
28427;SDS011;15662;49.128;8.520;2023-02-28T14:44:24;9.55;;;7.65;;
28427;SDS011;15662;49.128;8.520;2023-02-28T14:52:05;8.25;;;7.40;;
28427;SDS011;15662;49.128;8.520;2023-02-28T14:54:41;11.98;;;9.18;;
28427;SDS011;15662;49.128;8.520;2023-02-28T14:57:21;11.20;;;9.18;;
28427;SDS011;15662;49.128;8.520;2023-02-28T15:00:22;10.85;;;8.80;;
28427;SDS011;15662;49.128;8.520;2023-02-28T15:06:12;13.73;;;9.10;;
28427;SDS011;15662;49.128;8.520;2023-02-28T15:09:14;12.68;;;9.30;;
28427;SDS011;15662;49.128;8.520;2023-02-28T15:11:45;9.32;;;8.02;;
28427;SDS011;15662;49.128;8.520;2023-02-28T15:14:17;12.00;;;8.75;;
28427;SDS011;15662;49.128;8.520;2023-02-28T15:16:56;12.38;;;8.43;;
28427;SDS011;15662;49.128;8.520;2023-02-28T15:19:32;10.88;;;7.97;;
28427;SDS011;15662;49.128;8.520;2023-02-28T15:22:11;13.63;;;8.52;;
28427;SDS011;15662;49.128;8.520;2023-02-28T15:24:48;10.63;;;8.23;;
28427;SDS011;15662;49.128;8.520;2023-02-28T15:27:22;9.15;;;8.00;;
28427;SDS011;15662;49.128;8.520;2023-02-28T15:30:00;13.30;;;8.65;;
28427;SDS011;15662;49.128;8.520;2023-02-28T15:32:36;12.00;;;9.00;;
28427;SDS011;15662;49.128;8.520;2023-02-28T15:35:27;10.15;;;8.20;;
28427;SDS011;15662;49.128;8.520;2023-02-28T15:38:15;7.57;;;6.38;;
28427;SDS011;15662;49.128;8.520;2023-02-28T15:40:55;11.85;;;8.80;;
28427;SDS011;15662;49.128;8.520;2023-02-28T15:43:30;11.70;;;8.15;;
28427;SDS011;15662;49.128;8.520;2023-02-28T15:46:09;10.57;;;7.70;;
28427;SDS011;15662;49.128;8.520;2023-02-28T15:48:43;14.00;;;9.10;;
28427;SDS011;15662;49.128;8.520;2023-02-28T15:51:24;11.18;;;8.82;;
28427;SDS011;15662;49.128;8.520;2023-02-28T15:54:07;11.82;;;8.60;;
28427;SDS011;15662;49.128;8.520;2023-02-28T15:56:46;10.75;;;8.23;;
28427;SDS011;15662;49.128;8.520;2023-02-28T15:59:23;11.13;;;8.15;;
28427;SDS011;15662;49.128;8.520;2023-02-28T16:02:04;11.18;;;8.70;;
28427;SDS011;15662;49.128;8.520;2023-02-28T16:07:42;11.00;;;8.43;;
28427;SDS011;15662;49.128;8.520;2023-02-28T16:10:14;12.00;;;8.27;;
28427;SDS011;15662;49.128;8.520;2023-02-28T16:12:42;10.82;;;8.73;;
28427;SDS011;15662;49.128;8.520;2023-02-28T16:15:25;11.57;;;8.88;;
28427;SDS011;15662;49.128;8.520;2023-02-28T16:17:57;10.00;;;8.43;;
28427;SDS011;15662;49.128;8.520;2023-02-28T16:20:27;11.68;;;8.82;;
28427;SDS011;15662;49.128;8.520;2023-02-28T16:23:01;12.55;;;9.48;;
28427;SDS011;15662;49.128;8.520;2023-02-28T16:25:34;14.55;;;8.98;;
28427;SDS011;15662;49.128;8.520;2023-02-28T16:28:21;10.35;;;8.88;;
28427;SDS011;15662;49.128;8.520;2023-02-28T16:30:59;18.55;;;11.00;;
28427;SDS011;15662;49.128;8.520;2023-02-28T16:33:33;11.93;;;9.38;;
28427;SDS011;15662;49.128;8.520;2023-02-28T16:36:02;13.65;;;9.55;;
28427;SDS011;15662;49.128;8.520;2023-02-28T16:38:33;12.18;;;9.45;;
28427;SDS011;15662;49.128;8.520;2023-02-28T16:41:02;11.65;;;8.68;;
28427;SDS011;15662;49.128;8.520;2023-02-28T16:43:33;11.23;;;8.70;;
28427;SDS011;15662;49.128;8.520;2023-02-28T16:46:03;12.32;;;8.38;;
28427;SDS011;15662;49.128;8.520;2023-02-28T16:48:32;9.90;;;8.45;;
28427;SDS011;15662;49.128;8.520;2023-02-28T16:51:03;9.65;;;6.78;;
28427;SDS011;15662;49.128;8.520;2023-02-28T16:53:33;12.48;;;8.95;;
28427;SDS011;15662;49.128;8.520;2023-02-28T16:56:02;20.88;;;9.80;;
28427;SDS011;15662;49.128;8.520;2023-02-28T16:58:31;11.07;;;8.80;;
28427;SDS011;15662;49.128;8.520;2023-02-28T17:03:32;10.40;;;8.20;;
28427;SDS011;15662;49.128;8.520;2023-02-28T17:06:05;11.13;;;8.35;;
28427;SDS011;15662;49.128;8.520;2023-02-28T17:08:57;11.52;;;8.68;;
28427;SDS011;15662;49.128;8.520;2023-02-28T17:11:32;11.13;;;8.65;;
28427;SDS011;15662;49.128;8.520;2023-02-28T17:14:02;11.55;;;8.32;;
28427;SDS011;15662;49.128;8.520;2023-02-28T17:16:31;12.30;;;8.82;;
28427;SDS011;15662;49.128;8.520;2023-02-28T17:19:05;10.30;;;8.93;;
28427;SDS011;15662;49.128;8.520;2023-02-28T17:21:40;11.07;;;8.73;;
28427;SDS011;15662;49.128;8.520;2023-02-28T17:24:14;16.60;;;10.35;;
28427;SDS011;15662;49.128;8.520;2023-02-28T17:26:57;16.23;;;10.05;;
28427;SDS011;15662;49.128;8.520;2023-02-28T17:29:25;15.70;;;10.13;;
28427;SDS011;15662;49.128;8.520;2023-02-28T17:31:55;16.15;;;10.75;;
28427;SDS011;15662;49.128;8.520;2023-02-28T17:34:29;12.95;;;9.85;;
28427;SDS011;15662;49.128;8.520;2023-02-28T17:36:59;17.50;;;10.50;;
28427;SDS011;15662;49.128;8.520;2023-02-28T17:41:59;14.95;;;10.00;;
28427;SDS011;15662;49.128;8.520;2023-02-28T17:44:28;14.10;;;9.80;;
28427;SDS011;15662;49.128;8.520;2023-02-28T17:46:58;12.32;;;9.77;;
28427;SDS011;15662;49.128;8.520;2023-02-28T17:49:27;14.02;;;9.00;;
28427;SDS011;15662;49.128;8.520;2023-02-28T17:51:57;10.98;;;8.80;;
28427;SDS011;15662;49.128;8.520;2023-02-28T17:54:25;12.90;;;9.02;;
28427;SDS011;15662;49.128;8.520;2023-02-28T17:56:54;13.30;;;9.40;;
28427;SDS011;15662;49.128;8.520;2023-02-28T17:59:23;10.27;;;8.23;;
28427;SDS011;15662;49.128;8.520;2023-02-28T18:01:54;11.23;;;8.50;;
28427;SDS011;15662;49.128;8.520;2023-02-28T18:04:25;10.98;;;8.38;;
28427;SDS011;15662;49.128;8.520;2023-02-28T18:09:26;10.80;;;8.30;;
28427;SDS011;15662;49.128;8.520;2023-02-28T18:11:54;10.88;;;8.10;;